sensor_id;sensor_type;location;lat;lon;timestamp;P1;durP1;ratioP1;P2;durP2;ratioP2
13374;SDS011;6756;51.354;15.754;2023-03-04T00:01:20;39.27;;;18.77;;
13374;SDS011;6756;51.354;15.754;2023-03-04T00:05:21;34.40;;;17.27;;
13374;SDS011;6756;51.354;15.754;2023-03-04T00:09:22;32.87;;;16.43;;
13374;SDS011;6756;51.354;15.754;2023-03-04T00:13:23;36.50;;;18.57;;
13374;SDS011;6756;51.354;15.754;2023-03-04T00:17:24;35.47;;;19.10;;
13374;SDS011;6756;51.354;15.754;2023-03-04T00:21:24;32.10;;;17.83;;
13374;SDS011;6756;51.354;15.754;2023-03-04T00:25:25;33.73;;;18.47;;
13374;SDS011;6756;51.354;15.754;2023-03-04T00:29:26;34.50;;;18.97;;
13374;SDS011;6756;51.354;15.754;2023-03-04T00:33:27;36.67;;;19.93;;
13374;SDS011;6756;51.354;15.754;2023-03-04T00:37:28;33.73;;;19.77;;
13374;SDS011;6756;51.354;15.754;2023-03-04T00:41:29;33.87;;;19.00;;
13374;SDS011;6756;51.354;15.754;2023-03-04T00:45:29;34.67;;;19.53;;
13374;SDS011;6756;51.354;15.754;2023-03-04T00:49:30;36.57;;;19.57;;
13374;SDS011;6756;51.354;15.754;2023-03-04T00:53:31;38.50;;;19.63;;
13374;SDS011;6756;51.354;15.754;2023-03-04T00:57:32;31.07;;;18.70;;
13374;SDS011;6756;51.354;15.754;2023-03-04T01:01:33;31.73;;;17.97;;
13374;SDS011;6756;51.354;15.754;2023-03-04T01:05:33;31.43;;;18.97;;
13374;SDS011;6756;51.354;15.754;2023-03-04T01:09:35;37.87;;;17.70;;
13374;SDS011;6756;51.354;15.754;2023-03-04T01:13:35;31.10;;;19.17;;
13374;SDS011;6756;51.354;15.754;2023-03-04T01:17:37;27.20;;;16.23;;
13374;SDS011;6756;51.354;15.754;2023-03-04T01:21:37;29.10;;;16.23;;
13374;SDS011;6756;51.354;15.754;2023-03-04T01:25:38;27.07;;;14.40;;
13374;SDS011;6756;51.354;15.754;2023-03-04T01:29:39;22.43;;;13.93;;
13374;SDS011;6756;51.354;15.754;2023-03-04T01:33:40;21.40;;;13.03;;
13374;SDS011;6756;51.354;15.754;2023-03-04T01:37:41;23.47;;;13.40;;
13374;SDS011;6756;51.354;15.754;2023-03-04T01:41:41;18.70;;;12.80;;
13374;SDS011;6756;51.354;15.754;2023-03-04T01:45:42;23.93;;;12.93;;
13374;SDS011;6756;51.354;15.754;2023-03-04T01:49:44;21.10;;;12.90;;
13374;SDS011;6756;51.354;15.754;2023-03-04T01:53:52;23.97;;;12.10;;
13374;SDS011;6756;51.354;15.754;2023-03-04T01:57:54;23.30;;;13.70;;
13374;SDS011;6756;51.354;15.754;2023-03-04T02:01:59;23.03;;;13.97;;
13374;SDS011;6756;51.354;15.754;2023-03-04T02:06:00;26.73;;;15.43;;
13374;SDS011;6756;51.354;15.754;2023-03-04T02:10:02;29.03;;;17.13;;
13374;SDS011;6756;51.354;15.754;2023-03-04T02:14:04;35.17;;;18.97;;
13374;SDS011;6756;51.354;15.754;2023-03-04T02:18:13;35.80;;;19.20;;
13374;SDS011;6756;51.354;15.754;2023-03-04T02:22:19;34.57;;;20.07;;
13374;SDS011;6756;51.354;15.754;2023-03-04T02:26:24;35.83;;;19.47;;
13374;SDS011;6756;51.354;15.754;2023-03-04T02:30:26;35.20;;;18.80;;
13374;SDS011;6756;51.354;15.754;2023-03-04T02:34:28;46.60;;;20.27;;
13374;SDS011;6756;51.354;15.754;2023-03-04T02:38:32;35.10;;;19.70;;
13374;SDS011;6756;51.354;15.754;2023-03-04T02:42:32;31.73;;;18.30;;
13374;SDS011;6756;51.354;15.754;2023-03-04T02:46:33;34.07;;;18.20;;
13374;SDS011;6756;51.354;15.754;2023-03-04T02:50:35;32.23;;;17.90;;
13374;SDS011;6756;51.354;15.754;2023-03-04T02:54:40;31.83;;;18.37;;
13374;SDS011;6756;51.354;15.754;2023-03-04T02:58:40;30.07;;;18.23;;
13374;SDS011;6756;51.354;15.754;2023-03-04T03:02:41;29.10;;;15.77;;
13374;SDS011;6756;51.354;15.754;2023-03-04T03:06:42;25.00;;;15.73;;
13374;SDS011;6756;51.354;15.754;2023-03-04T03:10:43;25.60;;;15.43;;
13374;SDS011;6756;51.354;15.754;2023-03-04T03:14:44;28.67;;;16.17;;
13374;SDS011;6756;51.354;15.754;2023-03-04T03:18:44;27.03;;;16.10;;
13374;SDS011;6756;51.354;15.754;2023-03-04T03:22:45;26.27;;;14.73;;
13374;SDS011;6756;51.354;15.754;2023-03-04T03:26:46;22.23;;;13.77;;
13374;SDS011;6756;51.354;15.754;2023-03-04T03:30:47;25.30;;;14.00;;
13374;SDS011;6756;51.354;15.754;2023-03-04T03:34:48;29.63;;;15.03;;
13374;SDS011;6756;51.354;15.754;2023-03-04T03:38:49;25.57;;;15.47;;
13374;SDS011;6756;51.354;15.754;2023-03-04T03:42:49;28.47;;;17.13;;
13374;SDS011;6756;51.354;15.754;2023-03-04T03:46:50;27.87;;;17.43;;
13374;SDS011;6756;51.354;15.754;2023-03-04T03:50:51;25.27;;;16.00;;
13374;SDS011;6756;51.354;15.754;2023-03-04T03:54:52;31.27;;;17.60;;
13374;SDS011;6756;51.354;15.754;2023-03-04T03:58:53;29.33;;;16.13;;
13374;SDS011;6756;51.354;15.754;2023-03-04T04:02:53;29.77;;;16.83;;
13374;SDS011;6756;51.354;15.754;2023-03-04T04:06:56;27.97;;;16.13;;
13374;SDS011;6756;51.354;15.754;2023-03-04T04:10:58;22.23;;;14.53;;
13374;SDS011;6756;51.354;15.754;2023-03-04T04:14:58;22.50;;;14.90;;
13374;SDS011;6756;51.354;15.754;2023-03-04T04:18:59;24.93;;;14.40;;
13374;SDS011;6756;51.354;15.754;2023-03-04T04:23:00;22.23;;;13.47;;
13374;SDS011;6756;51.354;15.754;2023-03-04T04:27:02;24.17;;;14.87;;
13374;SDS011;6756;51.354;15.754;2023-03-04T04:31:05;26.67;;;13.90;;
13374;SDS011;6756;51.354;15.754;2023-03-04T04:35:08;22.87;;;13.53;;
13374;SDS011;6756;51.354;15.754;2023-03-04T04:39:09;26.33;;;13.77;;
13374;SDS011;6756;51.354;15.754;2023-03-04T04:43:09;23.83;;;13.20;;
13374;SDS011;6756;51.354;15.754;2023-03-04T04:47:10;26.83;;;15.00;;
13374;SDS011;6756;51.354;15.754;2023-03-04T04:51:11;26.53;;;15.77;;
13374;SDS011;6756;51.354;15.754;2023-03-04T04:55:12;22.80;;;14.27;;
13374;SDS011;6756;51.354;15.754;2023-03-04T04:59:13;23.90;;;15.47;;
13374;SDS011;6756;51.354;15.754;2023-03-04T05:03:14;28.53;;;14.83;;
13374;SDS011;6756;51.354;15.754;2023-03-04T05:07:14;23.83;;;14.63;;
13374;SDS011;6756;51.354;15.754;2023-03-04T05:11:16;21.90;;;14.23;;
13374;SDS011;6756;51.354;15.754;2023-03-04T05:15:18;20.20;;;12.60;;
13374;SDS011;6756;51.354;15.754;2023-03-04T05:19:20;20.03;;;13.10;;
13374;SDS011;6756;51.354;15.754;2023-03-04T05:23:21;21.90;;;14.60;;
13374;SDS011;6756;51.354;15.754;2023-03-04T05:27:22;25.00;;;15.13;;
13374;SDS011;6756;51.354;15.754;2023-03-04T05:31:23;24.70;;;13.47;;
13374;SDS011;6756;51.354;15.754;2023-03-04T05:35:23;21.97;;;12.87;;
13374;SDS011;6756;51.354;15.754;2023-03-04T05:39:24;22.73;;;12.67;;
13374;SDS011;6756;51.354;15.754;2023-03-04T05:43:26;20.70;;;12.83;;
13374;SDS011;6756;51.354;15.754;2023-03-04T05:47:27;24.80;;;13.37;;
13374;SDS011;6756;51.354;15.754;2023-03-04T05:51:28;24.10;;;13.53;;
13374;SDS011;6756;51.354;15.754;2023-03-04T05:55:29;24.77;;;12.90;;
13374;SDS011;6756;51.354;15.754;2023-03-04T05:59:30;22.23;;;12.53;;
13374;SDS011;6756;51.354;15.754;2023-03-04T06:03:31;24.10;;;12.83;;
13374;SDS011;6756;51.354;15.754;2023-03-04T06:07:32;17.67;;;10.93;;
13374;SDS011;6756;51.354;15.754;2023-03-04T06:11:33;18.60;;;11.20;;
13374;SDS011;6756;51.354;15.754;2023-03-04T06:15:34;19.30;;;11.47;;
13374;SDS011;6756;51.354;15.754;2023-03-04T06:19:35;17.73;;;10.47;;
13374;SDS011;6756;51.354;15.754;2023-03-04T06:23:37;17.37;;;10.37;;
13374;SDS011;6756;51.354;15.754;2023-03-04T06:27:37;18.07;;;10.63;;
13374;SDS011;6756;51.354;15.754;2023-03-04T06:31:38;19.30;;;12.03;;
13374;SDS011;6756;51.354;15.754;2023-03-04T06:35:40;20.00;;;11.47;;
13374;SDS011;6756;51.354;15.754;2023-03-04T06:39:41;24.80;;;11.60;;
13374;SDS011;6756;51.354;15.754;2023-03-04T06:43:42;21.40;;;11.93;;
13374;SDS011;6756;51.354;15.754;2023-03-04T06:47:43;25.30;;;13.17;;
13374;SDS011;6756;51.354;15.754;2023-03-04T06:51:44;24.37;;;11.77;;
13374;SDS011;6756;51.354;15.754;2023-03-04T06:55:45;22.57;;;13.37;;
13374;SDS011;6756;51.354;15.754;2023-03-04T06:59:47;24.30;;;14.50;;
13374;SDS011;6756;51.354;15.754;2023-03-04T07:03:48;25.57;;;14.27;;
13374;SDS011;6756;51.354;15.754;2023-03-04T07:07:50;25.93;;;15.97;;
13374;SDS011;6756;51.354;15.754;2023-03-04T07:11:51;27.17;;;14.33;;
13374;SDS011;6756;51.354;15.754;2023-03-04T07:15:52;24.63;;;13.30;;
13374;SDS011;6756;51.354;15.754;2023-03-04T07:19:52;22.93;;;12.80;;
13374;SDS011;6756;51.354;15.754;2023-03-04T07:23:53;19.97;;;12.00;;
13374;SDS011;6756;51.354;15.754;2023-03-04T07:27:54;21.47;;;12.50;;
13374;SDS011;6756;51.354;15.754;2023-03-04T07:31:55;24.20;;;12.30;;
13374;SDS011;6756;51.354;15.754;2023-03-04T07:35:59;23.50;;;11.30;;
13374;SDS011;6756;51.354;15.754;2023-03-04T07:40:00;18.93;;;10.87;;
13374;SDS011;6756;51.354;15.754;2023-03-04T07:44:02;20.33;;;11.10;;
13374;SDS011;6756;51.354;15.754;2023-03-04T07:48:03;16.70;;;10.57;;
13374;SDS011;6756;51.354;15.754;2023-03-04T07:52:04;18.87;;;10.13;;
13374;SDS011;6756;51.354;15.754;2023-03-04T07:56:06;18.60;;;10.60;;
13374;SDS011;6756;51.354;15.754;2023-03-04T08:00:11;17.73;;;9.70;;
13374;SDS011;6756;51.354;15.754;2023-03-04T08:04:13;16.53;;;9.90;;
13374;SDS011;6756;51.354;15.754;2023-03-04T08:08:14;17.53;;;9.50;;
13374;SDS011;6756;51.354;15.754;2023-03-04T08:12:15;17.97;;;9.30;;
13374;SDS011;6756;51.354;15.754;2023-03-04T08:16:17;18.77;;;9.90;;
13374;SDS011;6756;51.354;15.754;2023-03-04T08:20:18;13.87;;;8.87;;
13374;SDS011;6756;51.354;15.754;2023-03-04T08:24:19;18.03;;;8.90;;
13374;SDS011;6756;51.354;15.754;2023-03-04T08:28:19;14.53;;;9.50;;
13374;SDS011;6756;51.354;15.754;2023-03-04T08:32:20;14.07;;;8.47;;
13374;SDS011;6756;51.354;15.754;2023-03-04T08:36:21;15.17;;;8.20;;
13374;SDS011;6756;51.354;15.754;2023-03-04T08:40:22;15.67;;;9.90;;
13374;SDS011;6756;51.354;15.754;2023-03-04T08:44:25;17.40;;;9.20;;
13374;SDS011;6756;51.354;15.754;2023-03-04T08:48:26;13.13;;;8.73;;
13374;SDS011;6756;51.354;15.754;2023-03-04T08:52:28;18.50;;;9.40;;
13374;SDS011;6756;51.354;15.754;2023-03-04T08:56:29;16.90;;;9.60;;
13374;SDS011;6756;51.354;15.754;2023-03-04T09:00:31;18.17;;;9.63;;
13374;SDS011;6756;51.354;15.754;2023-03-04T09:04:32;20.13;;;10.87;;
13374;SDS011;6756;51.354;15.754;2023-03-04T09:08:33;19.80;;;9.43;;
13374;SDS011;6756;51.354;15.754;2023-03-04T09:12:35;14.80;;;8.73;;
13374;SDS011;6756;51.354;15.754;2023-03-04T09:16:36;15.07;;;9.87;;
13374;SDS011;6756;51.354;15.754;2023-03-04T09:20:37;16.13;;;10.07;;
13374;SDS011;6756;51.354;15.754;2023-03-04T09:24:37;17.40;;;9.37;;
13374;SDS011;6756;51.354;15.754;2023-03-04T09:28:38;17.23;;;9.63;;
13374;SDS011;6756;51.354;15.754;2023-03-04T09:32:39;21.10;;;10.17;;
13374;SDS011;6756;51.354;15.754;2023-03-04T09:36:40;18.00;;;9.63;;
13374;SDS011;6756;51.354;15.754;2023-03-04T09:40:45;14.77;;;9.23;;
13374;SDS011;6756;51.354;15.754;2023-03-04T09:44:47;18.53;;;9.70;;
13374;SDS011;6756;51.354;15.754;2023-03-04T09:48:49;15.60;;;9.20;;
13374;SDS011;6756;51.354;15.754;2023-03-04T09:57:13;13.37;;;8.33;;
13374;SDS011;6756;51.354;15.754;2023-03-04T10:01:46;15.57;;;9.07;;
13374;SDS011;6756;51.354;15.754;2023-03-04T10:18:20;14.73;;;8.50;;
13374;SDS011;6756;51.354;15.754;2023-03-04T10:22:48;13.73;;;8.63;;
13374;SDS011;6756;51.354;15.754;2023-03-04T10:26:51;12.67;;;8.80;;
13374;SDS011;6756;51.354;15.754;2023-03-04T10:35:44;14.83;;;8.60;;
13374;SDS011;6756;51.354;15.754;2023-03-04T10:40:19;13.63;;;8.70;;
13374;SDS011;6756;51.354;15.754;2023-03-04T10:44:22;12.80;;;8.33;;
13374;SDS011;6756;51.354;15.754;2023-03-04T10:48:27;13.37;;;8.60;;
13374;SDS011;6756;51.354;15.754;2023-03-04T10:56:37;13.30;;;8.63;;
13374;SDS011;6756;51.354;15.754;2023-03-04T11:00:41;12.40;;;8.20;;
13374;SDS011;6756;51.354;15.754;2023-03-04T11:04:47;11.70;;;8.53;;
13374;SDS011;6756;51.354;15.754;2023-03-04T11:08:55;11.83;;;7.30;;
13374;SDS011;6756;51.354;15.754;2023-03-04T11:17:01;12.97;;;7.63;;
13374;SDS011;6756;51.354;15.754;2023-03-04T11:21:21;12.10;;;8.40;;
13374;SDS011;6756;51.354;15.754;2023-03-04T11:29:59;11.40;;;7.60;;
13374;SDS011;6756;51.354;15.754;2023-03-04T11:34:19;9.53;;;7.03;;
13374;SDS011;6756;51.354;15.754;2023-03-04T11:38:46;8.73;;;6.43;;
13374;SDS011;6756;51.354;15.754;2023-03-04T11:42:56;9.13;;;6.70;;
13374;SDS011;6756;51.354;15.754;2023-03-04T11:59:34;9.23;;;5.67;;
13374;SDS011;6756;51.354;15.754;2023-03-04T12:12:21;8.70;;;6.23;;
13374;SDS011;6756;51.354;15.754;2023-03-04T12:25:43;8.73;;;6.50;;
13374;SDS011;6756;51.354;15.754;2023-03-04T12:34:26;9.30;;;6.17;;
13374;SDS011;6756;51.354;15.754;2023-03-04T13:01:13;6.13;;;4.03;;
13374;SDS011;6756;51.354;15.754;2023-03-04T13:05:28;9.77;;;4.67;;
13374;SDS011;6756;51.354;15.754;2023-03-04T13:09:37;7.57;;;3.67;;
13374;SDS011;6756;51.354;15.754;2023-03-04T13:26:38;4.97;;;3.23;;
13374;SDS011;6756;51.354;15.754;2023-03-04T13:38:42;6.03;;;3.40;;
13374;SDS011;6756;51.354;15.754;2023-03-04T13:43:16;7.47;;;3.80;;
13374;SDS011;6756;51.354;15.754;2023-03-04T13:47:29;5.00;;;2.57;;
13374;SDS011;6756;51.354;15.754;2023-03-04T13:51:39;7.83;;;2.73;;
13374;SDS011;6756;51.354;15.754;2023-03-04T13:55:51;7.93;;;3.03;;
13374;SDS011;6756;51.354;15.754;2023-03-04T14:00:01;4.20;;;2.60;;
13374;SDS011;6756;51.354;15.754;2023-03-04T14:08:19;5.63;;;3.37;;
13374;SDS011;6756;51.354;15.754;2023-03-04T14:12:20;5.50;;;2.63;;
13374;SDS011;6756;51.354;15.754;2023-03-04T14:16:22;5.93;;;3.07;;
13374;SDS011;6756;51.354;15.754;2023-03-04T14:20:30;4.83;;;2.60;;
13374;SDS011;6756;51.354;15.754;2023-03-04T14:24:36;4.93;;;2.63;;
13374;SDS011;6756;51.354;15.754;2023-03-04T14:28:47;5.00;;;2.70;;
13374;SDS011;6756;51.354;15.754;2023-03-04T14:32:54;4.23;;;2.50;;
13374;SDS011;6756;51.354;15.754;2023-03-04T14:36:58;6.57;;;2.73;;
13374;SDS011;6756;51.354;15.754;2023-03-04T14:45:09;4.97;;;3.27;;
13374;SDS011;6756;51.354;15.754;2023-03-04T14:49:14;5.17;;;3.00;;
13374;SDS011;6756;51.354;15.754;2023-03-04T14:53:17;5.30;;;3.37;;
13374;SDS011;6756;51.354;15.754;2023-03-04T14:57:21;6.33;;;2.60;;
13374;SDS011;6756;51.354;15.754;2023-03-04T15:01:29;4.33;;;3.07;;
13374;SDS011;6756;51.354;15.754;2023-03-04T15:05:33;2.50;;;2.27;;
13374;SDS011;6756;51.354;15.754;2023-03-04T15:09:35;3.83;;;2.63;;
13374;SDS011;6756;51.354;15.754;2023-03-04T15:13:37;4.97;;;2.70;;
13374;SDS011;6756;51.354;15.754;2023-03-04T15:17:41;6.10;;;3.00;;
13374;SDS011;6756;51.354;15.754;2023-03-04T15:21:44;5.37;;;3.13;;
13374;SDS011;6756;51.354;15.754;2023-03-04T15:25:45;4.10;;;2.70;;
13374;SDS011;6756;51.354;15.754;2023-03-04T15:29:53;3.80;;;2.60;;
13374;SDS011;6756;51.354;15.754;2023-03-04T15:33:58;5.60;;;3.20;;
13374;SDS011;6756;51.354;15.754;2023-03-04T15:37:59;5.87;;;2.97;;
13374;SDS011;6756;51.354;15.754;2023-03-04T15:42:00;7.33;;;2.57;;
13374;SDS011;6756;51.354;15.754;2023-03-04T15:46:01;3.73;;;2.40;;
13374;SDS011;6756;51.354;15.754;2023-03-04T15:50:02;4.40;;;2.63;;
13374;SDS011;6756;51.354;15.754;2023-03-04T15:54:03;6.63;;;2.53;;
13374;SDS011;6756;51.354;15.754;2023-03-04T15:58:09;6.07;;;2.97;;
13374;SDS011;6756;51.354;15.754;2023-03-04T16:02:14;5.50;;;2.27;;
13374;SDS011;6756;51.354;15.754;2023-03-04T16:06:20;8.23;;;2.50;;
13374;SDS011;6756;51.354;15.754;2023-03-04T16:10:26;6.80;;;2.37;;
13374;SDS011;6756;51.354;15.754;2023-03-04T16:14:29;7.40;;;2.37;;
13374;SDS011;6756;51.354;15.754;2023-03-04T16:18:30;6.47;;;2.70;;
13374;SDS011;6756;51.354;15.754;2023-03-04T16:22:31;6.67;;;1.97;;
13374;SDS011;6756;51.354;15.754;2023-03-04T16:26:32;4.10;;;1.97;;
13374;SDS011;6756;51.354;15.754;2023-03-04T16:30:34;5.70;;;1.97;;
13374;SDS011;6756;51.354;15.754;2023-03-04T16:34:35;6.70;;;2.30;;
13374;SDS011;6756;51.354;15.754;2023-03-04T16:38:36;4.77;;;2.40;;
13374;SDS011;6756;51.354;15.754;2023-03-04T16:42:37;5.47;;;2.73;;
13374;SDS011;6756;51.354;15.754;2023-03-04T16:46:39;6.33;;;2.50;;
13374;SDS011;6756;51.354;15.754;2023-03-04T16:50:40;9.47;;;2.30;;
13374;SDS011;6756;51.354;15.754;2023-03-04T16:54:42;5.57;;;2.80;;
13374;SDS011;6756;51.354;15.754;2023-03-04T16:58:45;4.87;;;2.60;;
13374;SDS011;6756;51.354;15.754;2023-03-04T17:02:55;4.20;;;2.60;;
13374;SDS011;6756;51.354;15.754;2023-03-04T17:06:58;6.60;;;2.77;;
13374;SDS011;6756;51.354;15.754;2023-03-04T17:10:59;6.67;;;2.93;;
13374;SDS011;6756;51.354;15.754;2023-03-04T17:14:59;6.43;;;2.90;;
13374;SDS011;6756;51.354;15.754;2023-03-04T17:19:03;7.47;;;2.57;;
13374;SDS011;6756;51.354;15.754;2023-03-04T17:23:04;8.90;;;2.77;;
13374;SDS011;6756;51.354;15.754;2023-03-04T17:27:04;7.33;;;2.93;;
13374;SDS011;6756;51.354;15.754;2023-03-04T17:31:09;6.73;;;2.40;;
13374;SDS011;6756;51.354;15.754;2023-03-04T17:35:10;6.60;;;2.13;;
13374;SDS011;6756;51.354;15.754;2023-03-04T17:39:11;6.40;;;2.57;;
13374;SDS011;6756;51.354;15.754;2023-03-04T17:43:12;5.93;;;2.33;;
13374;SDS011;6756;51.354;15.754;2023-03-04T17:47:15;8.17;;;3.23;;
13374;SDS011;6756;51.354;15.754;2023-03-04T17:51:17;7.80;;;2.57;;
13374;SDS011;6756;51.354;15.754;2023-03-04T17:55:18;9.83;;;2.50;;
13374;SDS011;6756;51.354;15.754;2023-03-04T17:59:20;7.30;;;2.10;;
13374;SDS011;6756;51.354;15.754;2023-03-04T18:03:21;7.73;;;2.70;;
13374;SDS011;6756;51.354;15.754;2023-03-04T18:07:22;9.57;;;2.40;;
13374;SDS011;6756;51.354;15.754;2023-03-04T18:11:23;6.67;;;2.50;;
13374;SDS011;6756;51.354;15.754;2023-03-04T18:15:25;10.40;;;2.37;;
13374;SDS011;6756;51.354;15.754;2023-03-04T18:19:26;11.00;;;3.13;;
13374;SDS011;6756;51.354;15.754;2023-03-04T18:23:27;9.93;;;2.63;;
13374;SDS011;6756;51.354;15.754;2023-03-04T18:27:28;11.67;;;2.90;;
13374;SDS011;6756;51.354;15.754;2023-03-04T18:31:29;9.57;;;2.33;;
13374;SDS011;6756;51.354;15.754;2023-03-04T18:35:33;7.97;;;2.77;;
13374;SDS011;6756;51.354;15.754;2023-03-04T18:39:34;11.20;;;3.03;;
13374;SDS011;6756;51.354;15.754;2023-03-04T18:43:35;15.17;;;2.83;;
13374;SDS011;6756;51.354;15.754;2023-03-04T18:47:37;11.20;;;2.33;;
13374;SDS011;6756;51.354;15.754;2023-03-04T18:51:43;5.43;;;3.00;;
13374;SDS011;6756;51.354;15.754;2023-03-04T18:55:44;9.30;;;2.93;;
13374;SDS011;6756;51.354;15.754;2023-03-04T19:03:51;11.97;;;2.83;;
13374;SDS011;6756;51.354;15.754;2023-03-04T19:07:53;8.07;;;2.90;;
13374;SDS011;6756;51.354;15.754;2023-03-04T19:11:54;15.10;;;2.83;;
13374;SDS011;6756;51.354;15.754;2023-03-04T19:15:55;10.00;;;3.07;;
13374;SDS011;6756;51.354;15.754;2023-03-04T19:19:56;9.07;;;3.13;;
13374;SDS011;6756;51.354;15.754;2023-03-04T19:23:57;7.97;;;2.57;;
13374;SDS011;6756;51.354;15.754;2023-03-04T19:27:57;6.93;;;2.43;;
13374;SDS011;6756;51.354;15.754;2023-03-04T19:32:00;9.50;;;2.77;;
13374;SDS011;6756;51.354;15.754;2023-03-04T19:36:01;15.33;;;4.10;;
13374;SDS011;6756;51.354;15.754;2023-03-04T19:40:03;11.97;;;2.90;;
13374;SDS011;6756;51.354;15.754;2023-03-04T19:44:06;11.37;;;2.73;;
13374;SDS011;6756;51.354;15.754;2023-03-04T19:48:07;10.40;;;2.93;;
13374;SDS011;6756;51.354;15.754;2023-03-04T19:52:08;9.47;;;3.17;;
13374;SDS011;6756;51.354;15.754;2023-03-04T19:56:09;12.87;;;2.70;;
13374;SDS011;6756;51.354;15.754;2023-03-04T20:00:10;20.27;;;3.40;;
13374;SDS011;6756;51.354;15.754;2023-03-04T20:04:13;15.30;;;3.20;;
13374;SDS011;6756;51.354;15.754;2023-03-04T20:08:15;9.90;;;3.00;;
13374;SDS011;6756;51.354;15.754;2023-03-04T20:12:16;13.60;;;2.97;;
13374;SDS011;6756;51.354;15.754;2023-03-04T20:16:17;16.63;;;3.40;;
13374;SDS011;6756;51.354;15.754;2023-03-04T20:20:18;17.60;;;3.40;;
13374;SDS011;6756;51.354;15.754;2023-03-04T20:24:19;16.73;;;4.33;;
13374;SDS011;6756;51.354;15.754;2023-03-04T20:28:22;10.50;;;2.90;;
13374;SDS011;6756;51.354;15.754;2023-03-04T20:32:24;11.77;;;3.40;;
13374;SDS011;6756;51.354;15.754;2023-03-04T20:36:26;11.63;;;3.07;;
13374;SDS011;6756;51.354;15.754;2023-03-04T20:40:28;10.97;;;2.90;;
13374;SDS011;6756;51.354;15.754;2023-03-04T20:44:29;12.17;;;3.20;;
13374;SDS011;6756;51.354;15.754;2023-03-04T20:48:30;14.97;;;3.07;;
13374;SDS011;6756;51.354;15.754;2023-03-04T20:52:31;9.53;;;2.73;;
13374;SDS011;6756;51.354;15.754;2023-03-04T20:56:32;11.73;;;4.03;;
13374;SDS011;6756;51.354;15.754;2023-03-04T21:00:34;13.80;;;4.77;;
13374;SDS011;6756;51.354;15.754;2023-03-04T21:04:37;12.50;;;5.60;;
13374;SDS011;6756;51.354;15.754;2023-03-04T21:08:38;16.33;;;4.60;;
13374;SDS011;6756;51.354;15.754;2023-03-04T21:12:40;16.03;;;5.67;;
13374;SDS011;6756;51.354;15.754;2023-03-04T21:16:41;15.70;;;3.50;;
13374;SDS011;6756;51.354;15.754;2023-03-04T21:20:42;16.60;;;4.93;;
13374;SDS011;6756;51.354;15.754;2023-03-04T21:24:44;12.80;;;4.37;;
13374;SDS011;6756;51.354;15.754;2023-03-04T21:28:45;12.17;;;3.30;;
13374;SDS011;6756;51.354;15.754;2023-03-04T21:32:46;18.87;;;5.23;;
13374;SDS011;6756;51.354;15.754;2023-03-04T21:36:47;12.03;;;5.40;;
13374;SDS011;6756;51.354;15.754;2023-03-04T21:40:48;10.43;;;4.10;;
13374;SDS011;6756;51.354;15.754;2023-03-04T21:44:48;10.13;;;2.90;;
13374;SDS011;6756;51.354;15.754;2023-03-04T21:48:49;6.30;;;2.30;;
13374;SDS011;6756;51.354;15.754;2023-03-04T21:52:50;4.97;;;1.70;;
13374;SDS011;6756;51.354;15.754;2023-03-04T21:56:51;6.13;;;3.07;;
13374;SDS011;6756;51.354;15.754;2023-03-04T22:00:52;5.43;;;2.73;;
13374;SDS011;6756;51.354;15.754;2023-03-04T22:04:53;8.00;;;2.30;;
13374;SDS011;6756;51.354;15.754;2023-03-04T22:08:54;6.23;;;2.50;;
13374;SDS011;6756;51.354;15.754;2023-03-04T22:12:57;8.00;;;2.80;;
13374;SDS011;6756;51.354;15.754;2023-03-04T22:16:59;5.27;;;2.40;;
13374;SDS011;6756;51.354;15.754;2023-03-04T22:21:04;8.67;;;3.70;;
13374;SDS011;6756;51.354;15.754;2023-03-04T22:25:12;8.10;;;4.47;;
13374;SDS011;6756;51.354;15.754;2023-03-04T22:29:13;6.50;;;3.20;;
13374;SDS011;6756;51.354;15.754;2023-03-04T22:33:14;6.60;;;3.23;;
13374;SDS011;6756;51.354;15.754;2023-03-04T22:37:15;6.50;;;3.60;;
13374;SDS011;6756;51.354;15.754;2023-03-04T22:41:16;7.33;;;4.10;;
13374;SDS011;6756;51.354;15.754;2023-03-04T22:45:18;4.27;;;2.37;;
13374;SDS011;6756;51.354;15.754;2023-03-04T22:49:19;4.23;;;2.00;;
13374;SDS011;6756;51.354;15.754;2023-03-04T22:53:19;3.50;;;2.20;;
13374;SDS011;6756;51.354;15.754;2023-03-04T22:57:20;4.83;;;2.37;;
13374;SDS011;6756;51.354;15.754;2023-03-04T23:01:21;6.40;;;3.80;;
13374;SDS011;6756;51.354;15.754;2023-03-04T23:05:22;8.70;;;4.33;;
13374;SDS011;6756;51.354;15.754;2023-03-04T23:09:23;8.83;;;4.90;;
13374;SDS011;6756;51.354;15.754;2023-03-04T23:13:24;6.37;;;2.93;;
13374;SDS011;6756;51.354;15.754;2023-03-04T23:17:24;4.83;;;2.60;;
13374;SDS011;6756;51.354;15.754;2023-03-04T23:21:25;4.10;;;2.17;;
13374;SDS011;6756;51.354;15.754;2023-03-04T23:25:27;4.93;;;2.20;;
13374;SDS011;6756;51.354;15.754;2023-03-04T23:29:28;4.37;;;2.03;;
13374;SDS011;6756;51.354;15.754;2023-03-04T23:33:28;4.37;;;2.10;;
13374;SDS011;6756;51.354;15.754;2023-03-04T23:37:29;6.33;;;2.80;;
13374;SDS011;6756;51.354;15.754;2023-03-04T23:41:30;6.87;;;2.93;;
13374;SDS011;6756;51.354;15.754;2023-03-04T23:45:33;7.47;;;3.70;;
13374;SDS011;6756;51.354;15.754;2023-03-04T23:49:34;11.40;;;5.90;;
13374;SDS011;6756;51.354;15.754;2023-03-04T23:53:35;7.70;;;3.80;;
13374;SDS011;6756;51.354;15.754;2023-03-04T23:57:37;4.17;;;2.10;;
